KGON/GON METAR and TAF weather

Enter ICAO airport designator
Station Type Date Time Source
KGON METAR 2019/10/18 10:56 UTC NOAA

KGON 181056Z 30012G19KT 10SM CLR 11/04 A2966 RMK AO2 SLP044 T01060039 $


Station Type Date Time Source
KGON Decoded METAR 2019/10/18 10:56 UTC NOAA

GROTON/NEW LONDON AIRPORT , CT, United States (KGON) 41-20N 72-03W 3M
Oct 18, 2019 - 06:56 AM EDT / 2019.10.18 1056 UTC
Wind: from the WNW (300 degrees) at 14 MPH (12 KT) gusting to 22 MPH (19 KT):0
Visibility: 10 mile(s):0
Sky conditions: clear
Temperature: 51.1 F (10.6 C)
Dew Point: 39.0 F (3.9 C)
Relative Humidity: 63%
Pressure (altimeter): 29.66 in. Hg (1004 hPa)
ob: KGON 181056Z 30012G19KT 10SM CLR 11/04 A2966 RMK AO2 SLP044 T01060039
cycle: 11

Station Type Date Time Source
KGON TAF 2019/10/18 12:22 UTC NOAA

TAF KGON 181120Z 1812/1912 29013G19KT P6SM BKN050
FM181400 31012G23KT P6SM SCT050
FM182300 30008KT P6SM SCT050
FM190900 32005KT P6SM SCT250

Example: see airport list